createdAt,value
2023-01-19T00:01:43.677Z,83.54
2023-01-19T00:04:11.786Z,83.56
2023-01-19T00:06:41.827Z,83.83
2023-01-19T00:09:09.793Z,84.42
2023-01-19T00:11:40.383Z,84.22
2023-01-19T00:14:08.361Z,83.51
2023-01-19T00:16:36.457Z,83.85
2023-01-19T00:19:04.817Z,84.36
2023-01-19T00:21:32.923Z,83.57
2023-01-19T00:24:02.168Z,83.15
2023-01-19T00:26:30.303Z,83.31
2023-01-19T00:29:00.489Z,84.52
2023-01-19T00:31:29.896Z,84.19
2023-01-19T00:33:57.796Z,84.43
2023-01-19T00:36:25.607Z,84.86
2023-01-19T00:38:53.427Z,84.60
2023-01-19T00:41:42.884Z,84.53
2023-01-19T00:44:10.252Z,85.33
2023-01-19T00:46:38.727Z,85.54
2023-01-19T00:49:07.187Z,85.70
2023-01-19T00:51:35.174Z,85.35
2023-01-19T00:54:10.297Z,85.25
2023-01-19T00:56:39.719Z,85.72
2023-01-19T00:59:07.855Z,85.17
2023-01-19T01:01:45.144Z,84.48
2023-01-19T01:04:14.904Z,85.50
2023-01-19T01:06:43.381Z,85.14
2023-01-19T01:09:13.404Z,85.02
2023-01-19T01:11:44.441Z,85.02
2023-01-19T01:14:14.413Z,84.75
2023-01-19T01:16:42.611Z,85.09
2023-01-19T01:19:10.856Z,84.91
2023-01-19T01:21:39.016Z,84.55
2023-01-19T01:24:08.202Z,84.59
2023-01-19T01:26:36.227Z,84.70
2023-01-19T01:29:08.466Z,85.78
2023-01-19T01:31:36.742Z,85.67
2023-01-19T01:34:04.733Z,85.43
2023-01-19T01:36:33.525Z,85.84
2023-01-19T01:39:04.414Z,85.74
2023-01-19T01:41:32.771Z,85.68
2023-01-19T01:44:03.110Z,85.64
2023-01-19T01:46:34.277Z,85.57
2023-01-19T01:49:08.979Z,85.34
2023-01-19T01:51:43.618Z,85.01
2023-01-19T01:54:19.445Z,85.17
2023-01-19T01:56:51.563Z,85.66
2023-01-19T01:59:27.333Z,85.04
2023-01-19T02:02:20.279Z,84.32
2023-01-19T02:04:53.513Z,84.13
2023-01-19T02:07:49.093Z,84.66
2023-01-19T02:10:35.255Z,84.37
2023-01-19T02:13:20.579Z,83.96
2023-01-19T02:15:51.783Z,83.88
2023-01-19T02:18:23.944Z,84.05
2023-01-19T02:21:12.448Z,83.65
2023-01-19T02:23:46.435Z,84.07
2023-01-19T02:26:20.800Z,84.77
2023-01-19T02:28:54.992Z,84.66
2023-01-19T02:31:23.560Z,84.99
2023-01-19T02:33:54.499Z,83.80
2023-01-19T02:36:27.573Z,83.48
2023-01-19T02:39:01.114Z,84.34
2023-01-19T02:41:35.696Z,83.44
2023-01-19T02:44:07.292Z,84.00
2023-01-19T02:46:35.845Z,83.54
2023-01-19T02:49:03.846Z,84.10
2023-01-19T02:51:32.183Z,83.82
2023-01-19T02:54:37.320Z,83.32
2023-01-19T02:57:33.316Z,83.09
2023-01-19T03:00:22.410Z,83.69
2023-01-19T03:03:07.049Z,83.92
2023-01-19T03:05:56.927Z,83.70
2023-01-19T03:08:44.067Z,83.78
2023-01-19T03:11:15.523Z,84.02
2023-01-19T03:13:50.992Z,84.16
2023-01-19T03:16:26.131Z,84.57
2023-01-19T03:19:00.285Z,84.52
2023-01-19T03:21:30.689Z,84.88
2023-01-19T03:24:05.537Z,84.09
2023-01-19T03:26:44.000Z,84.84
2023-01-19T03:29:16.718Z,84.11
2023-01-19T03:31:48.972Z,85.02
2023-01-19T03:34:22.020Z,85.10
2023-01-19T03:36:55.252Z,84.41
2023-01-19T03:39:25.384Z,84.82
2023-01-19T03:42:01.395Z,85.11
2023-01-19T03:44:32.337Z,85.60
2023-01-19T03:47:02.554Z,86.26
2023-01-19T03:49:32.447Z,86.34
2023-01-19T03:52:01.250Z,86.05
2023-01-19T03:54:29.499Z,85.40
2023-01-19T03:56:59.192Z,85.48
2023-01-19T03:59:27.483Z,85.12
2023-01-19T04:01:55.662Z,85.25
2023-01-19T04:04:23.654Z,85.12
2023-01-19T04:06:51.699Z,85.09
2023-01-19T04:09:20.251Z,85.63
2023-01-19T04:11:48.292Z,84.87
2023-01-19T04:14:17.803Z,84.62
2023-01-19T04:16:45.907Z,84.88
2023-01-19T04:19:13.937Z,84.00
2023-01-19T04:21:41.811Z,85.21
2023-01-19T04:24:11.405Z,84.83
2023-01-19T04:26:40.086Z,84.83
2023-01-19T04:29:07.955Z,84.87
2023-01-19T04:31:37.405Z,86.17
2023-01-19T04:34:06.155Z,85.87
2023-01-19T04:36:34.076Z,85.91
2023-01-19T04:39:01.817Z,85.18
2023-01-19T04:41:31.143Z,85.97
2023-01-19T04:43:59.742Z,85.05
2023-01-19T04:46:30.176Z,84.43
2023-01-19T04:49:00.608Z,84.51
2023-01-19T04:51:28.808Z,84.25
2023-01-19T04:53:57.754Z,83.67
2023-01-19T04:56:25.801Z,84.17
2023-01-19T04:58:54.023Z,83.89
2023-01-19T05:01:22.240Z,84.03
2023-01-19T05:03:50.185Z,84.17
2023-01-19T05:06:19.447Z,84.29
2023-01-19T05:08:47.378Z,85.25
2023-01-19T05:11:15.327Z,85.43
2023-01-19T05:13:43.666Z,84.20
2023-01-19T05:16:14.003Z,84.38
2023-01-19T05:18:42.023Z,84.64
2023-01-19T05:21:10.100Z,84.80
2023-01-19T05:23:39.583Z,85.01
2023-01-19T05:26:09.514Z,84.85
2023-01-19T05:28:38.019Z,85.78
2023-01-19T05:31:06.132Z,85.62
2023-01-19T05:33:33.993Z,85.79
2023-01-19T05:36:02.063Z,85.86
2023-01-19T05:38:35.371Z,86.28
2023-01-19T05:41:04.997Z,87.25
2023-01-19T05:43:32.894Z,88.04
2023-01-19T05:46:00.655Z,88.16
2023-01-19T05:48:28.673Z,87.29
2023-01-19T05:51:00.044Z,87.50
2023-01-19T05:53:28.928Z,87.15
2023-01-19T05:56:01.823Z,86.83
2023-01-19T05:58:31.128Z,87.45
2023-01-19T06:01:03.409Z,87.83
2023-01-19T06:03:31.285Z,88.27
2023-01-19T06:05:59.869Z,87.14
2023-01-19T06:08:28.899Z,87.25
2023-01-19T06:10:57.056Z,87.45
2023-01-19T06:13:24.835Z,87.41
2023-01-19T06:15:59.783Z,87.63
2023-01-19T06:18:29.698Z,87.70
2023-01-19T06:20:59.529Z,89.02
2023-01-19T06:23:28.022Z,87.59
2023-01-19T06:25:55.829Z,88.43
2023-01-19T06:28:24.031Z,87.74
2023-01-19T06:30:53.406Z,86.89
2023-01-19T06:33:25.194Z,87.28
2023-01-19T06:35:53.489Z,86.97
2023-01-19T06:38:22.162Z,85.48
2023-01-19T06:40:58.449Z,86.34
2023-01-19T06:43:27.678Z,86.05
2023-01-19T06:45:56.316Z,86.78
2023-01-19T06:48:25.912Z,86.80
2023-01-19T06:50:53.783Z,85.65
2023-01-19T06:53:22.480Z,85.06
2023-01-19T06:55:50.348Z,85.62
2023-01-19T06:58:18.633Z,85.57
2023-01-19T07:00:46.501Z,86.37
2023-01-19T07:03:22.406Z,85.17
2023-01-19T07:05:56.858Z,85.46
2023-01-19T07:08:25.127Z,86.01
2023-01-19T07:11:25.419Z,86.54
2023-01-19T07:13:44.705Z,86.07
2023-01-19T07:16:14.354Z,86.88
2023-01-19T07:18:42.285Z,87.31
2023-01-19T07:21:11.765Z,86.97
2023-01-19T07:23:39.753Z,85.97
2023-01-19T07:26:08.189Z,85.46
2023-01-19T07:28:37.035Z,85.77
2023-01-19T07:31:05.215Z,85.46
2023-01-19T07:33:33.209Z,85.41
2023-01-19T07:36:01.213Z,85.21
2023-01-19T07:38:30.396Z,84.19
2023-01-19T07:41:02.279Z,83.78
2023-01-19T07:43:30.287Z,83.52
2023-01-19T07:45:59.454Z,84.52
2023-01-19T07:48:28.813Z,84.49
2023-01-19T07:51:01.333Z,84.89
2023-01-19T07:53:30.479Z,84.37
2023-01-19T07:55:58.963Z,82.56
2023-01-19T07:58:27.469Z,81.71
2023-01-19T08:00:55.349Z,80.68
2023-01-19T08:03:23.682Z,81.25
2023-01-19T08:05:53.297Z,79.91
2023-01-19T08:08:21.619Z,80.45
2023-01-19T08:10:53.161Z,81.42
2023-01-19T08:13:20.994Z,81.76
2023-01-19T08:15:51.653Z,82.91
2023-01-19T08:18:20.970Z,82.92
2023-01-19T08:20:48.982Z,82.97
2023-01-19T08:23:18.029Z,81.66
2023-01-19T08:25:45.993Z,81.66
2023-01-19T08:28:18.002Z,80.16
2023-01-19T08:30:46.132Z,80.86
2023-01-19T08:33:14.854Z,82.05
2023-01-19T08:35:48.896Z,83.03
2023-01-19T08:38:17.058Z,83.48
2023-01-19T08:40:45.492Z,83.07
2023-01-19T08:43:17.272Z,83.29
2023-01-19T08:45:52.110Z,83.36
2023-01-19T08:48:23.472Z,81.89
2023-01-19T08:50:53.402Z,82.31
2023-01-19T08:53:23.544Z,82.76
2023-01-19T08:55:55.923Z,83.17
2023-01-19T08:58:25.629Z,83.71
2023-01-19T09:00:54.004Z,84.06
2023-01-19T09:03:23.121Z,83.70
2023-01-19T09:05:51.825Z,82.30
2023-01-19T09:08:20.178Z,82.29
2023-01-19T09:10:50.834Z,81.62
2023-01-19T09:13:19.783Z,80.84
2023-01-19T09:15:49.208Z,81.16
2023-01-19T09:18:20.424Z,80.78
2023-01-19T09:20:51.123Z,79.60
2023-01-19T09:23:22.090Z,79.41
2023-01-19T09:26:00.005Z,77.12
2023-01-19T09:28:29.402Z,76.61
2023-01-19T09:31:00.174Z,75.49
2023-01-19T09:33:29.326Z,75.79
2023-01-19T09:35:57.363Z,75.34
2023-01-19T09:38:26.036Z,75.90
2023-01-19T09:40:57.162Z,75.82
2023-01-19T09:43:40.410Z,76.81
2023-01-19T09:46:16.814Z,77.50
2023-01-19T09:48:49.181Z,79.25
2023-01-19T09:51:22.645Z,78.35
2023-01-19T09:54:01.111Z,79.23
2023-01-19T09:56:31.764Z,77.72
2023-01-19T09:59:01.478Z,78.20
2023-01-19T10:01:48.377Z,78.16
2023-01-19T10:04:30.144Z,76.91
2023-01-19T10:07:17.128Z,78.67
2023-01-19T10:10:07.131Z,78.17
2023-01-19T10:12:59.845Z,78.29
2023-01-19T10:15:47.258Z,77.47
2023-01-19T10:18:20.982Z,76.17
2023-01-19T10:20:55.114Z,76.14
2023-01-19T10:23:40.507Z,76.78
2023-01-19T10:26:17.074Z,75.12
2023-01-19T10:28:49.501Z,75.68
2023-01-19T10:31:22.790Z,74.31
2023-01-19T10:33:54.092Z,76.40
2023-01-19T10:36:28.983Z,75.96
2023-01-19T10:38:56.792Z,73.76
2023-01-19T10:41:32.982Z,73.71
2023-01-19T10:44:03.597Z,73.96
2023-01-19T10:46:43.159Z,71.66
2023-01-19T10:49:27.305Z,69.77
2023-01-19T10:51:57.528Z,69.57
2023-01-19T10:54:27.531Z,69.25
2023-01-19T10:57:00.528Z,68.95
2023-01-19T10:59:36.455Z,69.42
2023-01-19T11:02:18.927Z,67.67
2023-01-19T11:04:51.254Z,68.48
2023-01-19T11:07:23.698Z,67.45
2023-01-19T11:10:21.106Z,66.42
2023-01-19T11:13:00.940Z,68.78
2023-01-19T11:15:36.294Z,68.67
2023-01-19T11:18:07.432Z,68.91
2023-01-19T11:20:52.836Z,68.92
2023-01-19T11:23:29.082Z,66.99
2023-01-19T11:26:01.635Z,67.70
2023-01-19T11:28:35.376Z,67.30
2023-01-19T11:31:18.955Z,67.43
2023-01-19T11:33:52.854Z,68.49
2023-01-19T11:36:25.151Z,66.24
2023-01-19T11:38:55.952Z,67.40
2023-01-19T11:41:29.431Z,67.50
2023-01-19T11:44:02.709Z,65.34
2023-01-19T11:46:39.247Z,66.84
2023-01-19T11:49:21.561Z,66.02
2023-01-19T11:52:05.311Z,66.98
2023-01-19T11:54:41.579Z,65.63
2023-01-19T11:57:17.548Z,63.15
2023-01-19T11:59:46.622Z,61.81
2023-01-19T12:02:27.792Z,63.39
2023-01-19T12:05:03.333Z,62.78
2023-01-19T12:07:37.742Z,61.58
2023-01-19T12:10:21.774Z,62.33
2023-01-19T12:12:50.182Z,61.68
2023-01-19T12:15:34.217Z,60.89
2023-01-19T12:18:06.095Z,62.57
2023-01-19T12:20:39.560Z,62.54
2023-01-19T12:23:29.264Z,62.14
2023-01-19T12:26:18.499Z,62.32
2023-01-19T12:28:49.350Z,63.08
2023-01-19T12:31:20.487Z,61.29
2023-01-19T12:33:49.794Z,64.02
2023-01-19T12:36:40.216Z,64.44
2023-01-19T12:39:21.979Z,66.17
2023-01-19T12:42:06.257Z,64.44
2023-01-19T12:44:35.146Z,64.37
2023-01-19T12:47:22.160Z,63.53
2023-01-19T12:49:55.285Z,62.54
2023-01-19T12:52:34.653Z,61.57
2023-01-19T12:55:20.949Z,59.20
2023-01-19T12:57:59.783Z,58.69
2023-01-19T13:00:35.758Z,59.17
2023-01-19T13:03:21.637Z,55.32
2023-01-19T13:05:54.293Z,55.66
2023-01-19T13:08:30.370Z,56.63
2023-01-19T13:11:23.825Z,58.27
2023-01-19T13:14:37.091Z,56.62
2023-01-19T13:17:23.146Z,57.35
2023-01-19T13:20:00.862Z,56.08
2023-01-19T13:23:15.410Z,56.31
2023-01-19T13:26:07.450Z,56.40
2023-01-19T13:28:43.231Z,56.01
2023-01-19T13:31:13.212Z,54.51
2023-01-19T13:33:50.540Z,55.27
2023-01-19T13:36:26.755Z,55.88
2023-01-19T13:38:58.355Z,52.60
2023-01-19T13:41:32.368Z,53.70
2023-01-19T13:44:06.557Z,53.15
2023-01-19T13:46:34.997Z,52.67
2023-01-19T13:49:16.507Z,51.79
2023-01-19T13:51:44.699Z,51.43
2023-01-19T13:54:17.856Z,55.18
2023-01-19T13:56:50.157Z,56.08
2023-01-19T13:59:19.570Z,55.25
2023-01-19T14:01:49.177Z,55.24
2023-01-19T14:04:31.335Z,56.94
2023-01-19T14:07:04.573Z,57.58
2023-01-19T14:09:32.769Z,56.52
2023-01-19T14:12:13.225Z,56.09
2023-01-19T14:14:44.166Z,57.44
2023-01-19T14:17:26.010Z,56.51
2023-01-19T14:19:56.518Z,55.60
2023-01-19T14:22:39.957Z,55.89
2023-01-19T14:25:31.951Z,56.56
2023-01-19T14:28:29.499Z,56.04
2023-01-19T14:31:02.107Z,57.16
2023-01-19T14:33:41.548Z,55.86
2023-01-19T14:36:27.623Z,58.14
2023-01-19T14:38:59.013Z,56.41
2023-01-19T14:41:37.064Z,58.05
2023-01-19T14:44:10.584Z,57.20
2023-01-19T14:46:47.018Z,56.90
2023-01-19T14:49:22.663Z,57.47
2023-01-19T14:51:51.790Z,58.51
2023-01-19T14:54:32.409Z,58.08
2023-01-19T14:57:00.464Z,58.12
2023-01-19T14:59:28.393Z,58.12
2023-01-19T15:01:59.675Z,58.39
2023-01-19T15:04:28.002Z,58.45
2023-01-19T15:06:57.264Z,58.07
2023-01-19T15:09:26.528Z,57.87
2023-01-19T15:11:54.725Z,59.59
2023-01-19T15:14:23.069Z,59.79
2023-01-19T15:16:51.504Z,60.42
2023-01-19T15:19:20.872Z,60.65
2023-01-19T15:21:48.716Z,60.60
2023-01-19T15:24:17.982Z,59.01
2023-01-19T15:26:46.582Z,61.01
2023-01-19T15:29:23.544Z,61.15
2023-01-19T15:31:51.923Z,59.28
2023-01-19T15:34:21.268Z,60.23
2023-01-19T15:36:49.042Z,61.06
2023-01-19T15:39:16.875Z,60.42
2023-01-19T15:41:45.243Z,62.15
2023-01-19T15:44:13.125Z,60.58
2023-01-19T15:46:41.134Z,61.32
2023-01-19T15:49:09.076Z,61.04
2023-01-19T15:51:38.356Z,62.66
2023-01-19T15:54:06.471Z,64.08
2023-01-19T15:56:35.042Z,62.86
2023-01-19T15:59:02.948Z,63.64
2023-01-19T16:01:31.950Z,64.48
2023-01-19T16:04:02.501Z,64.78
2023-01-19T16:06:31.686Z,64.87
2023-01-19T16:09:04.362Z,66.01
2023-01-19T16:11:35.038Z,65.91
2023-01-19T16:14:03.038Z,66.35
2023-01-19T16:16:31.126Z,65.41
2023-01-19T16:18:59.573Z,65.04
2023-01-19T16:21:28.033Z,64.14
2023-01-19T16:23:56.142Z,63.96
2023-01-19T16:26:30.739Z,63.96
2023-01-19T16:29:01.020Z,64.27
2023-01-19T16:31:30.308Z,63.45
2023-01-19T16:33:58.095Z,65.04
2023-01-19T16:36:29.600Z,64.16
2023-01-19T16:39:00.833Z,63.72
2023-01-19T16:41:30.245Z,63.83
2023-01-19T16:44:00.315Z,63.57
2023-01-19T16:46:32.480Z,64.33
2023-01-19T16:49:02.040Z,63.81
2023-01-19T16:51:30.540Z,66.95
2023-01-19T16:53:58.640Z,66.27
2023-01-19T16:56:26.623Z,65.30
2023-01-19T16:58:56.810Z,65.47
2023-01-19T17:01:27.568Z,64.93
2023-01-19T17:03:56.642Z,64.53
2023-01-19T17:06:25.686Z,64.28
2023-01-19T17:08:54.447Z,63.86
2023-01-19T17:11:25.295Z,63.61
2023-01-19T17:13:57.678Z,64.32
2023-01-19T17:16:26.573Z,64.85
2023-01-19T17:18:55.270Z,63.78
2023-01-19T17:21:23.107Z,64.04
2023-01-19T17:23:54.515Z,63.19
2023-01-19T17:26:23.820Z,63.87
2023-01-19T17:28:52.141Z,63.65
2023-01-19T17:31:23.384Z,64.11
2023-01-19T17:33:52.064Z,64.78
2023-01-19T17:36:24.994Z,64.07
2023-01-19T17:38:55.115Z,65.13
2023-01-19T17:41:26.014Z,64.97
2023-01-19T17:43:57.557Z,65.47
2023-01-19T17:46:29.871Z,64.55
2023-01-19T17:49:00.535Z,65.48
2023-01-19T17:51:29.728Z,65.41
2023-01-19T17:53:58.735Z,65.58
2023-01-19T17:56:32.993Z,65.54
2023-01-19T17:59:01.154Z,64.00
2023-01-19T18:01:33.371Z,64.65
2023-01-19T18:04:02.621Z,63.89
2023-01-19T18:06:30.813Z,63.68
2023-01-19T18:08:59.827Z,63.70
2023-01-19T18:11:28.926Z,63.42
2023-01-19T18:13:58.383Z,62.45
2023-01-19T18:16:30.929Z,63.50
2023-01-19T18:18:59.197Z,63.66
2023-01-19T18:21:30.418Z,64.24
2023-01-19T18:24:05.286Z,65.02
2023-01-19T18:26:36.407Z,66.38
2023-01-19T18:29:04.931Z,68.25
2023-01-19T18:31:34.594Z,69.27
2023-01-19T18:34:02.496Z,70.28
2023-01-19T18:36:34.442Z,71.81
2023-01-19T18:39:03.329Z,72.42
2023-01-19T18:41:31.309Z,72.88
2023-01-19T18:43:59.699Z,72.80
2023-01-19T18:46:28.437Z,73.38
2023-01-19T18:48:57.620Z,74.46
2023-01-19T18:51:25.457Z,75.20
2023-01-19T18:53:53.328Z,75.64
2023-01-19T18:56:21.188Z,75.69
2023-01-19T18:58:49.155Z,75.56
2023-01-19T19:01:24.988Z,75.47
2023-01-19T19:03:54.540Z,75.74
2023-01-19T19:06:27.068Z,76.24
2023-01-19T19:08:57.464Z,76.50
2023-01-19T19:11:27.763Z,77.54
2023-01-19T19:13:58.711Z,77.05
2023-01-19T19:16:27.717Z,77.88
2023-01-19T19:18:55.683Z,78.23
2023-01-19T19:21:26.412Z,78.14
2023-01-19T19:23:56.742Z,77.72
2023-01-19T19:26:27.947Z,77.97
2023-01-19T19:28:56.080Z,77.72
2023-01-19T19:31:26.152Z,77.21
2023-01-19T19:33:54.868Z,78.05
2023-01-19T19:36:26.325Z,77.32
2023-01-19T19:38:54.975Z,77.04
2023-01-19T19:41:26.913Z,77.15
2023-01-19T19:43:56.554Z,79.05
2023-01-19T19:46:26.571Z,79.28
2023-01-19T19:48:55.838Z,78.26
2023-01-19T19:51:27.678Z,78.92
2023-01-19T19:53:57.381Z,78.75
2023-01-19T19:56:29.249Z,79.89
2023-01-19T19:58:59.996Z,79.54
2023-01-19T20:01:33.214Z,79.58
2023-01-19T20:04:07.498Z,80.03
2023-01-19T20:06:39.897Z,79.02
2023-01-19T20:09:10.126Z,78.07
2023-01-19T20:11:39.820Z,79.98
2023-01-19T20:14:08.875Z,78.89
2023-01-19T20:16:37.966Z,77.73
2023-01-19T20:19:06.312Z,77.62
2023-01-19T20:21:38.807Z,77.24
2023-01-19T20:24:10.647Z,77.55
2023-01-19T20:26:43.573Z,77.63
2023-01-19T20:29:12.120Z,76.74
2023-01-19T20:31:44.318Z,76.85
2023-01-19T20:34:15.322Z,76.57
2023-01-19T20:36:49.335Z,76.48
2023-01-19T20:39:18.051Z,77.59
2023-01-19T20:41:45.841Z,78.51
2023-01-19T20:44:15.937Z,78.59
2023-01-19T20:46:43.957Z,77.59
2023-01-19T20:49:11.972Z,78.15
2023-01-19T20:51:43.373Z,77.51
2023-01-19T20:54:14.119Z,77.67
2023-01-19T20:56:43.495Z,78.16
2023-01-19T20:59:13.445Z,78.84
2023-01-19T21:01:42.309Z,77.94
2023-01-19T21:04:11.419Z,78.79
2023-01-19T21:06:39.729Z,79.95
2023-01-19T21:09:08.854Z,79.62
2023-01-19T21:11:40.126Z,80.40
2023-01-19T21:14:09.438Z,80.80
2023-01-19T21:16:38.521Z,79.11
2023-01-19T21:19:06.948Z,78.69
2023-01-19T21:21:34.800Z,78.34
2023-01-19T21:24:04.804Z,78.96
2023-01-19T21:26:33.658Z,78.93
2023-01-19T21:29:04.967Z,78.94
2023-01-19T21:31:32.807Z,78.06
2023-01-19T21:34:00.927Z,79.47
2023-01-19T21:36:28.944Z,78.67
2023-01-19T21:39:00.537Z,79.40
2023-01-19T21:41:30.951Z,79.25
2023-01-19T21:44:02.683Z,78.43
2023-01-19T21:46:32.910Z,78.27
2023-01-19T21:49:09.862Z,78.22
2023-01-19T21:51:38.369Z,77.82
2023-01-19T21:54:08.063Z,76.95
2023-01-19T21:56:37.935Z,77.46
2023-01-19T21:59:07.545Z,76.90
2023-01-19T22:01:48.536Z,77.08
2023-01-19T22:04:16.510Z,77.80
2023-01-19T22:06:44.287Z,77.31
2023-01-19T22:09:12.170Z,76.05
2023-01-19T22:11:40.189Z,76.33
2023-01-19T22:14:10.627Z,76.36
2023-01-19T22:16:38.618Z,76.92
2023-01-19T22:19:08.154Z,76.82
2023-01-19T22:21:36.967Z,77.17
2023-01-19T22:24:06.289Z,76.24
2023-01-19T22:26:35.009Z,76.38
2023-01-19T22:29:05.572Z,76.65
2023-01-19T22:31:34.809Z,76.75
2023-01-19T22:34:02.811Z,75.11
2023-01-19T22:36:33.946Z,74.68
2023-01-19T22:39:05.000Z,74.32
2023-01-19T22:41:35.867Z,73.74
2023-01-19T22:44:07.307Z,73.22
2023-01-19T22:46:38.486Z,74.53
2023-01-19T22:49:08.471Z,74.94
2023-01-19T22:51:37.044Z,76.88
2023-01-19T22:54:05.744Z,74.54
2023-01-19T22:56:39.269Z,73.88
2023-01-19T22:59:07.684Z,73.57
2023-01-19T23:01:40.079Z,73.06
2023-01-19T23:04:09.996Z,72.13
2023-01-19T23:06:39.135Z,72.64
2023-01-19T23:09:11.229Z,71.42
2023-01-19T23:11:42.816Z,71.85
2023-01-19T23:14:16.273Z,70.66
2023-01-19T23:16:47.084Z,70.92
2023-01-19T23:19:17.062Z,71.14
2023-01-19T23:21:45.511Z,71.01
2023-01-19T23:24:13.500Z,71.14
2023-01-19T23:26:41.526Z,72.56
2023-01-19T23:29:14.739Z,71.42
2023-01-19T23:31:48.506Z,74.20
2023-01-19T23:34:17.572Z,72.91
2023-01-19T23:36:45.698Z,73.08
2023-01-19T23:39:17.063Z,73.90
2023-01-19T23:41:45.178Z,72.93
2023-01-19T23:44:13.190Z,74.64
2023-01-19T23:46:41.124Z,74.80
2023-01-19T23:49:10.460Z,75.27
2023-01-19T23:51:39.978Z,75.73
2023-01-19T23:54:08.490Z,76.37
2023-01-19T23:56:38.690Z,76.41
2023-01-19T23:59:10.352Z,77.75
